Time;durP1;ratioP1;P1;durP2;ratioP2;P2;SDS_P1;SDS_P2;PMS_P1;PMS_P2;Temp;Humidity;BMP_temperature;BMP_pressure;BME280_temperature;BME280_humidity;BME280_pressure;Samples;Min_cycle;Max_cycle;Signal;HPM_P1;HPM_P2
2024/03/08 00:02:04;;;;;;;38.00;19.70;;;;;;;-0.33;74.83;101067.63;129622;1265;128969;-65
2024/03/08 00:05:08;;;;;;;42.70;21.30;;;;;;;-0.36;74.96;101071.98;129333;1265;385676;-65
2024/03/08 00:08:10;;;;;;;45.90;23.30;;;;;;;-0.40;75.06;101071.77;129795;1265;114712;-65
2024/03/08 00:11:12;;;;;;;44.10;21.50;;;;;;;-0.42;75.03;101069.13;129703;1282;114749;-65
2024/03/08 00:14:14;;;;;;;50.40;23.60;;;;;;;-0.46;75.10;101070.67;129709;1265;114742;-66
2024/03/08 00:17:16;;;;;;;40.40;21.20;;;;;;;-0.50;75.35;101069.07;129484;1268;115338;-65
2024/03/08 00:20:18;;;;;;;43.70;21.00;;;;;;;-0.54;75.22;101069.56;129705;1264;114899;-65
2024/03/08 00:23:20;;;;;;;55.60;25.40;;;;;;;-0.57;75.55;101066.36;129742;1263;114826;-65
2024/03/08 00:26:22;;;;;;;48.40;23.50;;;;;;;-0.61;75.56;101070.55;129486;1259;114764;-65
2024/03/08 00:29:24;;;;;;;48.60;25.10;;;;;;;-0.63;75.64;101071.77;129737;1265;114828;-65
2024/03/08 00:32:31;;;;;;;51.00;26.90;;;;;;;-0.64;75.63;101073.14;129762;1263;114838;-65
2024/03/08 00:35:33;;;;;;;41.30;21.40;;;;;;;-0.68;75.64;101070.14;129748;1260;114725;-65
2024/03/08 00:38:35;;;;;;;45.90;24.70;;;;;;;-0.73;75.84;101074.11;129666;1282;114895;-65
2024/03/08 00:41:37;;;;;;;50.80;25.90;;;;;;;-0.78;75.57;101073.55;129761;1282;115141;-65
2024/03/08 00:44:39;;;;;;;46.10;24.20;;;;;;;-0.81;76.08;101071.06;129480;1267;127522;-65
2024/03/08 00:47:43;;;;;;;43.60;22.60;;;;;;;-0.85;75.89;101072.61;129540;1264;114771;-65
2024/03/08 00:50:46;;;;;;;39.40;20.70;;;;;;;-0.89;76.19;101070.98;129422;1259;114815;-65
2024/03/08 00:53:48;;;;;;;50.00;25.50;;;;;;;-0.93;76.06;101065.87;129740;1265;114742;-65
2024/03/08 00:56:50;;;;;;;56.80;28.10;;;;;;;-0.96;76.42;101059.37;129770;1259;114757;-65
2024/03/08 00:59:52;;;;;;;44.80;23.50;;;;;;;-0.97;76.62;101055.13;129594;1260;114853;-65
2024/03/08 01:02:57;;;;;;;48.60;24.80;;;;;;;-1.00;76.38;101050.73;129703;1259;114759;-65
2024/03/08 01:06:01;;;;;;;48.20;23.50;;;;;;;-1.02;76.88;101050.88;129720;1265;114847;-65
2024/03/08 01:09:03;;;;;;;51.20;24.70;;;;;;;-1.04;77.15;101052.27;129552;1260;114972;-65
2024/03/08 01:12:07;;;;;;;45.80;22.30;;;;;;;-1.05;77.03;101047.86;129680;1264;114863;-65
2024/03/08 01:15:10;;;;;;;48.90;25.00;;;;;;;-1.07;76.88;101043.81;129737;1264;114834;-65
2024/03/08 01:18:12;;;;;;;45.80;22.30;;;;;;;-1.09;77.10;101046.77;129736;1263;114736;-65
2024/03/08 01:21:14;;;;;;;51.90;25.00;;;;;;;-1.13;77.11;101046.73;129512;1265;114837;-65
2024/03/08 01:24:16;;;;;;;63.50;28.60;;;;;;;-1.16;77.13;101038.63;129813;1260;115122;-65
2024/03/08 01:27:18;;;;;;;60.10;27.20;;;;;;;-1.19;77.60;101032.83;129412;1265;114899;-65
2024/03/08 01:30:20;;;;;;;53.70;26.70;;;;;;;-1.21;77.88;101031.57;129813;1260;116137;-65
2024/03/08 01:33:26;;;;;;;52.70;24.30;;;;;;;-1.25;77.79;101032.06;129816;1265;114842;-65
2024/03/08 01:36:27;;;;;;;;;;;;;;;-1.28;77.79;101032.55;129769;1281;114806;-65
2024/03/08 01:39:29;;;;;;;46.80;23.60;;;;;;;-1.31;77.67;101033.05;129692;1282;114727;-65
2024/03/08 01:42:31;;;;;;;56.80;27.80;;;;;;;-1.34;77.97;101028.29;129819;1264;114847;-65
2024/03/08 01:45:34;;;;;;;58.50;25.80;;;;;;;-1.36;77.95;101024.06;129732;1264;114743;-65
2024/03/08 01:48:36;;;;;;;53.10;27.10;;;;;;;-1.39;77.71;101021.40;129721;1265;114856;-65
2024/03/08 01:51:40;;;;;;;54.60;24.70;;;;;;;-1.42;77.52;101018.39;129700;1260;114774;-65
2024/03/08 01:54:42;;;;;;;50.30;23.70;;;;;;;-1.45;77.87;101015.19;129687;1260;114853;-65
2024/03/08 01:57:44;;;;;;;44.80;22.70;;;;;;;-1.48;77.89;101010.61;129726;1263;114735;-65
2024/03/08 02:00:49;;;;;;;45.80;23.20;;;;;;;-1.51;77.79;101009.00;129687;1273;129832;-64
2024/03/08 02:03:51;;;;;;;49.70;22.10;;;;;;;-1.55;78.50;101010.70;129687;1268;114938;-64
2024/03/08 02:06:52;;;;;;;53.10;24.70;;;;;;;-1.56;78.17;101009.46;130002;1265;114757;-64
2024/03/08 02:09:54;;;;;;;54.90;24.10;;;;;;;-1.58;78.79;101008.23;129880;1273;114749;-65
2024/03/08 02:12:56;;;;;;;29.40;13.10;;;;;;;-1.59;78.22;101002.61;129749;1282;114797;-65
2024/03/08 02:16:00;;;;;;;46.00;22.50;;;;;;;-1.61;78.59;101001.69;129629;1264;115232;-65
2024/03/08 02:19:35;;;;;;;44.10;23.10;;;;;;;-1.62;78.86;101005.34;130287;1254;114788;31
2024/03/08 02:23:40;;;;;;;43.90;21.30;;;;;;;-1.63;78.74;101003.59;129369;1284;114797;-64
2024/03/08 02:27:36;;;;;;;42.00;19.20;;;;;;;-1.65;78.96;100997.10;128180;1292;114995;-61
2024/03/08 02:31:29;;;;;;;44.20;19.50;;;;;;;-1.67;79.04;100997.79;127627;1279;114964;-63
2024/03/08 02:35:17;;;;;;;;;;;;;;;;;;;;;
2024/03/08 02:39:20;;;;;;;38.80;19.30;;;;;;;-1.71;79.27;100994.23;125986;1311;128257;-62
2024/03/08 02:43:04;;;;;;;;;;;;;;;;;;;;;
2024/03/08 02:51:41;;;;;;;45.50;23.00;;;;;;;-1.72;79.38;100989.30;125710;1299;638683;-62
2024/03/08 02:55:28;;;;;;;;;;;;;;;;;;;;;
2024/03/08 02:59:15;;;;;;;15.80;7.50;;;;;;;-1.78;79.44;100981.35;126515;1294;114967;-64
2024/03/08 03:03:17;;;;;;;36.30;16.40;;;;;;;-1.80;79.05;100979.58;122152;1298;5515246;-63
2024/03/08 03:07:16;;;;;;;;;;;;;;;;;;;;;
2024/03/08 03:11:14;;;;;;;41.10;19.50;;;;;;;-1.83;79.69;100980.77;124202;1330;114947;-67
2024/03/08 03:15:11;;;;;;;;;;;;;;;;;;;;;
2024/03/08 03:18:58;;;;;;;41.00;21.70;;;;;;;-1.88;79.63;100982.46;124139;1307;130061;-64
2024/03/08 03:23:00;;;;;;;42.70;19.80;;;;;;;-1.90;79.71;100981.38;124076;1321;115059;-67
2024/03/08 03:30:57;;;;;;;;;;;;;;;;;;;;;
2024/03/08 03:34:54;;;;;;;33.90;18.90;;;;;;;-1.96;80.16;100981.66;127962;1277;128816;-66
2024/03/08 03:47:01;;;;;;;45.90;23.10;;;;;;;-1.99;80.68;100986.54;122185;1296;115387;-68
2024/03/08 03:50:50;;;;;;;33.70;16.00;;;;;;;-2.01;80.17;100986.68;125268;1324;114959;-67
2024/03/08 03:54:49;;;;;;;43.40;22.50;;;;;;;-2.03;80.50;100987.19;124728;1329;115381;-67
2024/03/08 03:58:31;;;;;;;41.70;21.10;;;;;;;-2.04;80.61;100985.76;124038;1325;128720;-66
2024/03/08 04:02:46;;;;;;;;;;;;;;;;;;;;;
2024/03/08 04:10:54;;;;;;;43.50;23.30;;;;;;;-2.11;80.22;100981.64;126968;1307;114816;-69
2024/03/08 04:14:45;;;;;;;45.50;21.70;;;;;;;-2.14;80.73;100982.13;121828;1318;5602023;-69
2024/03/08 04:18:30;;;;;;;47.40;25.40;;;;;;;-2.17;80.68;100984.72;124937;1321;114826;-64
2024/03/08 04:22:23;;;;;;;38.40;18.10;;;;;;;-2.19;80.79;100986.27;124909;1316;115063;-70
2024/03/08 04:26:13;;;;;;;39.10;19.90;;;;;;;-2.22;80.79;100978.34;125010;1325;114865;-67
2024/03/08 04:30:13;;;;;;;;;;;;;;;;;;;;;
2024/03/08 04:38:32;;;;;;;89.10;37.30;;;;;;;-2.25;81.44;100973.92;125404;1301;639635;-67
2024/03/08 04:42:29;;;;;;;132.10;56.30;;;;;;;-2.30;81.11;100974.38;127928;1276;128935;-68
2024/03/08 04:46:23;;;;;;;156.00;60.70;;;;;;;-2.31;81.54;100974.89;127835;1280;116476;-66
2024/03/08 04:50:23;;;;;;;380.90;152.80;;;;;;;-2.33;81.66;100973.48;125025;1292;5556410;-66
2024/03/08 04:53:55;;;;;;;;;;;;;;;;;;;;;
2024/03/08 04:57:49;;;;;;;;;;;;;;;;;;;;;
2024/03/08 05:01:36;;;;;;;42.60;19.90;;;;;;;-2.37;81.98;100973.76;124687;1329;129591;-63
2024/03/08 05:09:41;;;;;;;;;;;;;;;;;;;;;
2024/03/08 05:13:43;;;;;;;45.50;22.90;;;;;;;-2.42;82.23;100976.66;127928;1283;128798;-68
2024/03/08 05:17:43;;;;;;;;;;;;;;;;;;;;;
2024/03/08 05:25:14;;;;;;;;;;;;;;;;;;;;;
2024/03/08 05:29:12;;;;;;;35.70;17.90;;;;;;;-2.35;82.35;100979.73;126436;1312;114847;-65
2024/03/08 05:33:00;;;;;;;;;;;;;;;;;;;;;
2024/03/08 05:36:50;;;;;;;43.10;23.20;;;;;;;-2.33;82.17;100974.69;125258;1318;131164;-67
2024/03/08 05:40:45;;;;;;;;;;;;;;;;;;;;;
2024/03/08 05:44:28;;;;;;;;;;;;;;;-2.29;82.99;100972.83;124809;1327;114960;-68
2024/03/08 05:48:29;;;;;;;37.60;18.50;;;;;;;-2.24;82.77;100973.77;124445;1332;115266;-66
2024/03/08 05:52:22;;;;;;;13.80;6.30;;;;;;;-2.19;82.79;100978.21;123735;1319;115044;-63
2024/03/08 06:00:50;;;;;;;40.40;20.50;;;;;;;-2.08;82.96;100976.26;125758;1304;637396;-65
2024/03/08 06:04:45;;;;;;;21.90;9.50;;;;;;;-2.03;83.47;100973.35;127024;1289;129791;-61
2024/03/08 06:08:42;;;;;;;50.40;25.30;;;;;;;-1.98;82.95;100978.84;126641;1290;114866;-64
2024/03/08 06:12:33;;;;;;;;;;;;;;;;;;;;;
2024/03/08 06:16:19;;;;;;;29.60;15.10;;;;;;;-1.79;83.23;100981.69;125569;1309;114769;-67
2024/03/08 06:20:20;;;;;;;47.30;24.80;;;;;;;-1.71;83.13;100985.48;124871;1308;114977;-63
2024/03/08 06:28:45;;;;;;;;;;;;;;;;;;;;;
2024/03/08 06:32:42;;;;;;;27.50;14.60;;;;;;;-1.16;83.37;100986.40;127109;1286;128850;-64
2024/03/08 06:37:04;;;;;;;31.70;17.70;;;;;;;-0.86;83.48;100987.55;126349;1287;114916;-62
2024/03/08 06:40:48;;;;;;;17.50;9.60;;;;;;;-0.61;83.18;100978.10;122465;1307;5451550;-62
2024/03/08 06:44:48;;;;;;;31.30;16.00;;;;;;;-0.35;82.89;100975.64;126632;1290;114948;-65
2024/03/08 06:48:35;;;;;;;;;;;;;;;;;;;;;
2024/03/08 06:52:38;;;;;;;34.90;18.20;;;;;;;0.19;82.63;100977.50;125318;1304;114952;-66
2024/03/08 07:00:58;;;;;;;36.30;18.50;;;;;;;0.68;81.63;100967.80;125582;1311;635990;-63
2024/03/08 07:04:46;;;;;;;26.90;14.50;;;;;;;0.89;81.44;100973.64;127379;1283;128684;-62
2024/03/08 07:08:47;;;;;;;30.70;17.20;;;;;;;1.08;80.71;100977.51;126494;1292;114866;-65
2024/03/08 07:12:55;;;;;;;32.20;16.10;;;;;;;1.26;80.45;100979.81;121906;1317;5488245;-63
2024/03/08 07:16:47;;;;;;;;;;;;;;;;;;;;;
2024/03/08 07:20:37;;;;;;;26.80;15.80;;;;;;;1.64;79.63;100973.42;123910;1335;115062;-69
2024/03/08 07:29:04;;;;;;;30.50;17.30;;;;;;;2.17;78.75;100976.09;128058;1296;128323;-64
2024/03/08 07:33:02;;;;;;;34.80;17.70;;;;;;;2.40;78.85;100968.41;128212;1294;114990;-66
2024/03/08 07:36:43;;;;;;;;;;;;;;;;;;;;;
2024/03/08 07:41:00;;;;;;;32.90;16.60;;;;;;;2.86;77.88;100970.26;127403;1301;115075;-62
2024/03/08 07:44:55;;;;;;;;;;;;;;;;;;;;;
2024/03/08 07:48:39;;;;;;;;;;;;;;;;;;;;;
2024/03/08 07:52:19;;;;;;;;;;;;;;;;;;;;;
2024/03/08 07:56:53;;;;;;;34.10;18.10;;;;;;;4.05;76.18;100962.44;125626;1313;637396;-62
2024/03/08 08:00:32;;;;;;;;;;;;;;;;;;;;;
2024/03/08 08:04:29;;;;;;;26.30;14.40;;;;;;;4.69;74.82;100959.13;126764;1290;114955;-68
2024/03/08 08:08:05;;;;;;;;;;;;;;;;;;;;;
2024/03/08 08:12:10;;;;;;;;;;;;;;;;;;;;;
2024/03/08 08:16:12;;;;;;;26.10;13.50;;;;;;;5.58;72.78;100954.48;125642;1317;116724;-67
2024/03/08 08:19:56;;;;;;;21.70;12.20;;;;;;;5.93;73.15;100948.52;124694;1309;128735;-66
2024/03/08 08:23:47;;;;;;;34.30;17.60;;;;;;;6.19;71.93;100943.56;124152;1332;115102;-67
2024/03/08 08:27:26;;;;;;;32.20;19.70;;;;;;;6.49;71.88;100942.76;123993;1332;115031;-69
2024/03/08 08:35:42;;;;;;;;;;;;;;;;;;;;;
2024/03/08 08:39:30;;;;;;;;;;;;;;;;;;;;;
2024/03/08 08:43:34;;;;;;;31.00;18.70;;;;;;;6.36;68.75;100936.48;127775;1270;114847;-67
2024/03/08 08:47:29;;;;;;;;;;;;;;;;;;;;;
2024/03/08 08:51:10;;;;;;;;;;;;;;;;;;;;;
2024/03/08 08:55:14;;;;;;;28.50;15.90;;;;;;;6.11;68.02;100927.98;126122;1303;115097;-68
2024/03/08 08:59:14;;;;;;;;;;;;;;;;;;;;;
2024/03/08 09:07:13;;;;;;;26.20;16.10;;;;;;;5.65;67.25;100924.92;125565;1299;640063;-67
2024/03/08 09:11:16;;;;;;;28.60;18.30;;;;;;;5.41;66.19;100928.04;128359;1279;128757;-66
2024/03/08 09:15:02;;;;;;;17.20;10.60;;;;;;;5.20;66.81;100923.80;126514;1287;114974;-66
2024/03/08 09:22:51;;;;;;;17.40;11.60;;;;;;;5.27;67.35;100916.59;121630;1305;114878;-65
2024/03/08 09:31:05;;;;;;;26.20;15.80;;;;;;;5.55;66.55;100910.95;125848;1305;635311;-64
2024/03/08 09:34:57;;;;;;;26.40;16.00;;;;;;;5.60;66.47;100909.63;128530;1285;128548;-61
2024/03/08 09:39:00;;;;;;;19.50;10.10;;;;;;;5.64;66.24;100905.11;128845;1281;114921;-62
2024/03/08 09:43:00;;;;;;;;;;;;;;;;;;;;;
2024/03/08 09:46:53;;;;;;;26.40;13.40;;;;;;;5.62;65.99;100891.86;126146;1304;114864;-61
2024/03/08 09:50:54;;;;;;;9.90;6.70;;;;;;;5.73;66.33;100889.50;125938;1309;129776;-63
2024/03/08 09:54:44;;;;;;;19.50;13.10;;;;;;;5.86;66.16;100881.80;125494;1302;114869;-62
2024/03/08 10:07:03;;;;;;;17.50;11.50;;;;;;;5.87;65.67;100867.80;126558;1295;636018;-63
2024/03/08 10:10:46;;;;;;;17.90;11.30;;;;;;;5.83;65.43;100868.23;127654;1286;128520;-62
2024/03/08 10:14:53;;;;;;;19.80;13.20;;;;;;;5.82;64.99;100865.58;127320;1286;115162;-66
2024/03/08 10:18:48;;;;;;;;;;;;;;;;;;;;;
2024/03/08 10:22:46;;;;;;;21.50;12.80;;;;;;;5.74;65.15;100863.44;122242;1295;114919;-66
2024/03/08 10:26:14;;;;;;;;;;;;;;;;;;;;;
2024/03/08 10:30:19;;;;;;;10.80;5.80;;;;;;;5.76;64.92;100865.00;124973;1305;115001;-64
2024/03/08 10:34:02;;;;;;;;;;;;;;;;;;;;;
2024/03/08 10:37:57;;;;;;;;;;;;;;;;;;;;;
2024/03/08 10:41:57;;;;;;;;;;;;;;;;;;;;;
2024/03/08 10:50:20;;;;;;;;;;;;;;;;;;;;;
2024/03/08 10:54:17;;;;;;;;;;;;;;;;;;;;;
2024/03/08 10:58:21;;;;;;;17.90;12.00;;;;;;;5.74;63.17;100849.27;127266;1288;114861;-64
2024/03/08 11:02:16;;;;;;;18.40;11.70;;;;;;;5.76;63.12;100842.14;121936;1314;5483524;-65
2024/03/08 11:06:35;;;;;;;15.50;10.20;;;;;;;5.75;62.62;100841.63;125345;1299;114947;-66
2024/03/08 11:10:26;;;;;;;15.00;9.30;;;;;;;5.73;62.29;100837.41;124751;1328;114991;-66
2024/03/08 11:18:52;;;;;;;16.80;11.20;;;;;;;5.69;61.80;100835.20;125719;1300;636735;-67
2024/03/08 11:23:03;;;;;;;15.60;10.80;;;;;;;5.69;62.11;100828.45;127867;1284;129106;-67
2024/03/08 11:27:11;;;;;;;17.70;10.40;;;;;;;5.72;61.89;100823.61;126614;1294;114892;-67
2024/03/08 11:31:13;;;;;;;13.20;8.30;;;;;;;5.69;61.60;100821.20;121659;1299;5513450;-64
2024/03/08 11:35:16;;;;;;;;;;;;;;;;;;;;;
2024/03/08 11:39:03;;;;;;;;;;;;;;;;;;;;;
2024/03/08 11:42:53;;;;;;;;;;;;;;;;;;;;;
2024/03/08 11:46:52;;;;;;;;;;;;;;;;;;;;;
2024/03/08 11:50:41;;;;;;;18.20;11.30;;;;;;;5.77;61.47;100791.77;127929;1292;114924;-66
2024/03/08 11:54:37;;;;;;;;;;;;;;;;;;;;;
2024/03/08 11:58:42;;;;;;;17.60;10.80;;;;;;;5.78;61.21;100780.42;125327;1313;115010;-65
2024/03/08 12:02:42;;;;;;;;;;;;;;;;;;;;;
2024/03/08 12:06:42;;;;;;;;;;;;;;;;;;;;;
2024/03/08 12:10:35;;;;;;;;;;;;;;;;;;;;;
2024/03/08 12:18:51;;;;;;;;;;;;;;;;;;;;;
2024/03/08 12:22:56;;;;;;;19.00;12.90;;;;;;;5.92;60.95;100751.73;127955;1292;128567;-67
2024/03/08 12:26:59;;;;;;;22.90;13.80;;;;;;;5.99;61.33;100752.13;128158;1280;114903;-68
2024/03/08 12:30:52;;;;;;;;;;;;;;;;;;;;;
2024/03/08 12:34:55;;;;;;;18.60;12.30;;;;;;;6.09;61.04;100738.80;126815;1288;114941;-68
2024/03/08 12:38:37;;;;;;;;;;;;;;;;;;;;;
2024/03/08 12:42:41;;;;;;;15.10;10.50;;;;;;;6.17;60.61;100733.81;125861;1296;128520;-65
2024/03/08 12:50:52;;;;;;;;;;;;;;;;;;;;;
2024/03/08 12:54:56;;;;;;;18.00;11.90;;;;;;;6.14;59.93;100721.47;128263;1281;128605;-68
2024/03/08 12:58:53;;;;;;;;;;;;;;;;;;;;;
2024/03/08 13:02:51;;;;;;;14.50;9.50;;;;;;;6.20;60.03;100709.78;125253;1304;5618024;-67
2024/03/08 13:06:40;;;;;;;;;;;;;;;;;;;;;
2024/03/08 13:10:22;;;;;;;;;;;;;;;6.26;59.74;100706.11;123912;1316;129078;-66
2024/03/08 13:23:05;;;;;;;;;;;;;;;;;;;;;
2024/03/08 13:27:09;;;;;;;;;;;;;;;;;;;;;
2024/03/08 13:31:01;;;;;;;18.70;11.00;;;;;;;6.34;59.33;100681.58;121788;1317;5538149;-62
2024/03/08 13:34:55;;;;;;;21.20;12.90;;;;;;;6.37;59.73;100679.55;125350;1299;115282;-65
2024/03/08 13:38:59;;;;;;;22.10;13.30;;;;;;;6.42;59.40;100673.77;124689;1310;114894;-63
2024/03/08 13:42:50;;;;;;;;;;;;;;;;;;;;;
2024/03/08 13:51:12;;;;;;;;;;;;;;;;;;;;;
2024/03/08 13:55:06;;;;;;;18.40;11.20;;;;;;;6.48;59.74;100661.69;127709;1290;129333;-67
2024/03/08 13:59:09;;;;;;;19.60;12.40;;;;;;;6.53;59.98;100656.60;126851;1289;115241;-63
2024/03/08 14:03:12;;;;;;;18.80;11.80;;;;;;;6.58;59.93;100654.88;121628;1320;5622187;-66
2024/03/08 14:07:11;;;;;;;15.60;6.10;;;;;;;6.61;59.90;100649.13;125014;1318;115050;-64
2024/03/08 14:11:13;;;;;;;17.10;9.70;;;;;;;6.61;59.47;100643.61;124990;1312;114938;-64
2024/03/08 14:15:05;;;;;;;;;;;;;;;;;;;;;
2024/03/08 14:19:19;;;;;;;;;;;;;;;;;;;;;
2024/03/08 14:23:16;;;;;;;13.80;7.30;;;;;;;6.57;59.19;100641.24;128323;1278;127756;-62
2024/03/08 14:27:11;;;;;;;;;;;;;;;;;;;;;
2024/03/08 14:31:12;;;;;;;19.20;11.50;;;;;;;6.51;59.48;100636.59;127349;1281;114935;-67
2024/03/08 14:34:16;;;;;;;21.20;13.10;;;;;;;6.51;59.38;100631.30;123677;1305;116444;-63
2024/03/08 14:37:39;;;;;;;20.50;13.00;;;;;;;6.51;59.16;100628.27;127563;1284;116571;-64
2024/03/08 14:41:10;;;;;;;21.40;13.10;;;;;;;6.51;59.58;100621.54;127463;1287;114941;-67
2024/03/08 14:44:57;;;;;;;19.10;13.10;;;;;;;6.54;59.71;100619.86;126876;1304;128913;-66
2024/03/08 14:48:44;;;;;;;20.80;14.00;;;;;;;6.55;59.57;100616.81;126871;1289;114832;-64
2024/03/08 14:57:06;;;;;;;21.40;11.00;;;;;;;6.51;59.42;100612.84;126302;1315;115548;-63
2024/03/08 15:01:00;;;;;;;19.30;12.10;;;;;;;6.49;59.63;100608.27;125158;1311;114795;-62
2024/03/08 15:04:43;;;;;;;19.70;12.20;;;;;;;6.48;59.50;100600.51;125717;1301;129699;-62
2024/03/08 15:08:33;;;;;;;;;;;;;;;;;;;;;
2024/03/08 15:12:36;;;;;;;23.30;13.30;;;;;;;6.45;59.63;100596.52;125490;1320;115012;-63
2024/03/08 15:16:29;;;;;;;;;;;;;;;;;;;;;
2024/03/08 15:24:22;;;;;;;17.60;10.90;;;;;;;6.38;59.38;100581.08;126317;1295;636987;-62
2024/03/08 15:28:25;;;;;;;;;;;;;;;;;;;;;
2024/03/08 15:32:32;;;;;;;35.60;18.80;;;;;;;6.27;59.20;100579.44;127577;1283;114865;-62
2024/03/08 15:36:33;;;;;;;24.20;14.40;;;;;;;6.24;59.51;100582.52;122685;1290;5552147;-63
2024/03/08 15:40:34;;;;;;;21.80;14.30;;;;;;;6.21;59.91;100580.47;125317;1305;114913;-62
2024/03/08 15:48:55;;;;;;;21.70;12.30;;;;;;;6.16;59.90;100581.31;126169;1306;638701;-63
2024/03/08 15:52:49;;;;;;;18.90;9.30;;;;;;;6.10;60.26;100577.05;127855;1281;129138;-62
2024/03/08 15:56:45;;;;;;;;;;;;;;;;;;;;;
2024/03/08 16:05:07;;;;;;;21.20;13.00;;;;;;;5.95;60.64;100577.25;125949;1302;115027;-62
2024/03/08 16:13:42;;;;;;;19.70;13.20;;;;;;;5.84;61.21;100578.03;125834;1307;638727;-62
2024/03/08 16:17:45;;;;;;;19.50;12.90;;;;;;;5.74;61.45;100576.86;127567;1283;128179;-62
2024/03/08 16:21:47;;;;;;;16.40;10.00;;;;;;;5.68;61.47;100573.12;126907;1289;116557;-62
2024/03/08 16:25:49;;;;;;;23.50;12.80;;;;;;;5.60;61.78;100568.71;122257;1293;5608888;-61
2024/03/08 16:29:43;;;;;;;;;;;;;;;;;;;;;
2024/03/08 16:33:48;;;;;;;;;;;;;;;;;;;;;
2024/03/08 16:38:14;;;;;;;23.30;13.50;;;;;;;5.37;62.59;100567.48;125740;1300;636075;-62
2024/03/08 16:42:16;;;;;;;21.90;13.10;;;;;;;5.26;62.74;100567.59;127899;1281;129752;-62
2024/03/08 16:46:13;;;;;;;;;;;;;;;;;;;;;
2024/03/08 16:50:17;;;;;;;22.60;13.80;;;;;;;5.06;63.11;100566.63;122353;1295;5438919;-63
2024/03/08 16:54:18;;;;;;;28.60;16.10;;;;;;;4.94;63.35;100574.49;125488;1319;114971;-68
2024/03/08 16:58:14;;;;;;;;;;;;;;;;;;;;;
2024/03/08 17:06:35;;;;;;;21.10;11.70;;;;;;;4.68;63.82;100564.43;125744;1300;638571;-62
2024/03/08 17:10:58;;;;;;;23.30;15.00;;;;;;;4.56;63.97;100564.83;127756;1290;128749;-63
2024/03/08 17:14:49;;;;;;;;;;;;;;;;;;;;;
2024/03/08 17:19:00;;;;;;;;;;;;;;;;;;;;;
2024/03/08 17:23:06;;;;;;;26.20;15.70;;;;;;;4.33;64.64;100567.77;127417;1287;127726;-61
2024/03/08 17:27:07;;;;;;;35.50;18.80;;;;;;;4.24;64.94;100570.23;127762;1284;115020;-62
2024/03/08 17:31:12;;;;;;;;;;;;;;;;;;;;;
2024/03/08 17:35:18;;;;;;;34.80;17.60;;;;;;;4.08;65.12;100572.31;124667;1310;114874;-62
2024/03/08 17:43:29;;;;;;;44.00;23.20;;;;;;;3.92;65.65;100568.17;125751;1308;638519;-62
2024/03/08 17:47:32;;;;;;;33.90;17.90;;;;;;;3.78;65.84;100568.77;127514;1284;128779;-62
2024/03/08 17:51:34;;;;;;;30.40;17.00;;;;;;;3.67;66.13;100568.97;126553;1288;114804;-62
2024/03/08 17:55:37;;;;;;;;;;;;;;;;;;;;;
2024/03/08 17:59:39;;;;;;;64.40;30.60;;;;;;;3.47;66.36;100571.22;124606;1310;114975;-63
2024/03/08 18:03:37;;;;;;;;;;;;;;;;;;;;;
2024/03/08 18:07:57;;;;;;;;;;;;;;;;;;;;;
2024/03/08 18:12:01;;;;;;;;;;;;;;;;;;;;;
2024/03/08 18:16:07;;;;;;;50.90;29.80;;;;;;;3.04;67.46;100564.27;127705;1287;114887;-61
2024/03/08 18:20:00;;;;;;;;;;;;;;;;;;;;;
2024/03/08 18:24:03;;;;;;;49.30;28.70;;;;;;;2.86;67.86;100560.64;125357;1304;116572;-61
2024/03/08 18:32:34;;;;;;;41.40;24.30;;;;;;;2.72;68.22;100560.84;125742;1301;639399;-61
2024/03/08 18:36:35;;;;;;;55.70;30.10;;;;;;;2.62;68.40;100556.19;127565;1286;128042;-62
2024/03/08 18:41:04;;;;;;;52.90;27.10;;;;;;;2.57;68.73;100559.78;126289;1313;114936;-62
2024/03/08 18:44:39;;;;;;;56.80;30.30;;;;;;;2.50;68.78;100557.23;121756;1296;5612066;-62
2024/03/08 18:48:32;;;;;;;;;;;;;;;;;;;;;
2024/03/08 18:52:20;;;;;;;;;;;;;;;;;;;;;
2024/03/08 18:56:22;;;;;;;41.20;23.30;;;;;;;2.34;69.36;100552.13;124721;1305;129776;-62
2024/03/08 18:59:51;;;;;;;53.70;29.00;;;;;;;2.29;69.72;100552.88;123951;1315;115470;-61
2024/03/08 19:03:27;;;;;;;45.80;24.50;;;;;;;2.24;69.52;100550.64;123898;1334;114913;-62
2024/03/08 19:07:14;;;;;;;;;;;;;;;;;;;;;
2024/03/08 19:11:15;;;;;;;44.90;24.40;;;;;;;2.13;70.14;100544.95;124055;1330;114898;-62
2024/03/08 19:18:34;;;;;;;;;;;;;;;;;;;;;
2024/03/08 19:22:35;;;;;;;69.30;35.70;;;;;;;1.98;70.64;100539.48;125818;1296;115963;-63
2024/03/08 19:26:37;;;;;;;72.60;35.20;;;;;;;1.92;71.04;100541.29;124667;1329;114945;-63
2024/03/08 19:30:09;;;;;;;68.60;35.30;;;;;;;1.86;70.98;100545.94;124708;1326;114888;-63
2024/03/08 19:34:06;;;;;;;88.20;40.60;;;;;;;1.81;71.22;100543.88;125036;1325;129889;-62
2024/03/08 19:37:55;;;;;;;97.10;40.80;;;;;;;1.74;71.40;100539.71;125032;1307;116237;-63
2024/03/08 19:41:41;;;;;;;;;;;;;;;;;;;;;
2024/03/08 19:45:35;;;;;;;73.20;30.70;;;;;;;1.65;71.62;100536.81;123953;1333;114994;-63
2024/03/08 19:49:16;;;;;;;;;;;;;;;1.62;71.95;100533.31;124005;1333;115032;-62
2024/03/08 19:53:03;;;;;;;;;;;;;;;;;;;;;
2024/03/08 19:56:39;;;;;;;;;;;;;;;;;;;;;
2024/03/08 20:04:41;;;;;;;49.00;27.70;;;;;;;1.59;72.60;100521.72;126371;1304;635921;-63
2024/03/08 20:12:38;;;;;;;;;;;;;;;;;;;;;
2024/03/08 20:16:27;;;;;;;;;;;;;;;;;;;;;
2024/03/08 20:19:49;;;;;;;;;;;;;;;;;;;;;
2024/03/08 20:23:52;;;;;;;30.20;14.10;;;;;;;1.63;73.12;100515.34;127176;1286;115020;-68
2024/03/08 20:27:56;;;;;;;34.90;18.30;;;;;;;1.62;72.92;100513.77;126371;1308;114865;-65
2024/03/08 20:31:56;;;;;;;26.10;12.20;;;;;;;1.60;72.95;100516.42;125321;1308;128707;-64
2024/03/08 20:35:44;;;;;;;39.40;18.10;;;;;;;1.56;73.18;100510.48;124595;1313;114931;-66
2024/03/08 20:39:35;;;;;;;34.00;16.10;;;;;;;1.54;73.11;100510.50;124526;1312;114965;-62
2024/03/08 20:47:52;;;;;;;52.30;22.40;;;;;;;1.52;73.31;100506.63;125689;1301;639174;-63
2024/03/08 20:51:12;;;;;;;;;;;;;;;;;;;;;
2024/03/08 20:55:03;;;;;;;36.70;18.30;;;;;;;1.40;73.34;100503.05;127769;1280;114932;-62
2024/03/08 20:58:41;;;;;;;34.50;19.50;;;;;;;1.34;73.54;100499.41;127633;1283;114876;-62
2024/03/08 21:02:21;;;;;;;27.90;15.60;;;;;;;1.28;73.67;100496.11;125345;1295;114901;-62
2024/03/08 21:06:24;;;;;;;;;;;;;;;;;;;;;
2024/03/08 21:10:20;;;;;;;30.10;14.50;;;;;;;1.18;73.92;100488.27;126650;1287;114965;-68
2024/03/08 21:14:12;;;;;;;;;;;;;;;;;;;;;
2024/03/08 21:22:16;;;;;;;32.80;16.40;;;;;;;1.09;73.98;100484.11;124591;1328;114964;-61
2024/03/08 21:26:08;;;;;;;;;;;;;;;;;;;;;
2024/03/08 21:30:09;;;;;;;;;;;;;;;;;;;;;
2024/03/08 21:34:00;;;;;;;34.20;18.00;;;;;;;0.99;74.21;100482.61;123618;1321;129853;-62
2024/03/08 21:38:18;;;;;;;35.70;18.00;;;;;;;0.98;74.15;100476.46;126656;1291;635547;-62
2024/03/08 21:42:20;;;;;;;28.00;13.80;;;;;;;0.92;74.46;100477.90;128162;1281;127961;-62
2024/03/08 21:46:20;;;;;;;31.20;16.20;;;;;;;0.90;74.78;100474.58;127680;1280;115003;-62
2024/03/08 21:50:16;;;;;;;;;;;;;;;;;;;;;
2024/03/08 21:54:11;;;;;;;33.20;17.00;;;;;;;0.87;74.96;100465.81;124829;1310;114961;-63
2024/03/08 22:02:24;;;;;;;38.80;18.90;;;;;;;0.83;74.78;100460.21;126068;1298;636042;-62
2024/03/08 22:06:50;;;;;;;30.70;14.20;;;;;;;0.78;74.62;100455.86;128417;1272;128368;-63
2024/03/08 22:10:22;;;;;;;;;;;;;;;;;;;;;
2024/03/08 22:13:46;;;;;;;;;;;;;;;;;;;;;
2024/03/08 22:16:51;;;;;;;;;;;;;;;0.65;75.51;100455.41;128302;1280;114868;-62
2024/03/08 22:24:48;;;;;;;;;;;;;;;;;;;;;
2024/03/08 22:28:41;;;;;;;33.60;17.00;;;;;;;0.58;75.43;100456.50;127000;1296;114785;-62
2024/03/08 22:32:32;;;;;;;;;;;;;;;;;;;;;
2024/03/08 22:36:26;;;;;;;;;;;;;;;;;;;;;
2024/03/08 22:40:27;;;;;;;36.00;15.90;;;;;;;0.57;76.12;100445.98;124902;1324;114879;-63
2024/03/08 22:44:22;;;;;;;18.20;8.40;;;;;;;0.57;76.30;100440.34;124753;1322;130832;-62
2024/03/08 22:48:23;;;;;;;40.80;18.30;;;;;;;0.56;76.15;100438.24;124822;1310;115068;-61
2024/03/08 22:51:59;;;;;;;;;;;;;;;;;;;;;
2024/03/08 23:00:43;;;;;;;36.80;18.10;;;;;;;0.55;76.78;100429.11;125702;1299;635990;-63
2024/03/08 23:03:55;;;;;;;;;;;;;;;;;;;;;
2024/03/08 23:07:47;;;;;;;;;;;;;;;;;;;;;
2024/03/08 23:11:28;;;;;;;;;;;;;;;;;;;;;
2024/03/08 23:15:28;;;;;;;43.70;22.90;;;;;;;0.49;76.99;100419.31;124411;1276;114865;-65
2024/03/08 23:19:46;;;;;;;38.80;20.20;;;;;;;0.47;77.05;100422.31;126655;1292;114999;-62
2024/03/08 23:23:44;;;;;;;;;;;;;;;;;;;;;